Last Chance, Iowa
Current Conditions -  °F | °C
As of 1:15 PM on Sunday 23 Nov 2014 (Local Time) from KCNC Reporting Station
Haze Haze  
Wind Chill: 12°   Ceiling: 300
Heat Index: 12°   Visibility: 2.5mi
Dew Point: 12°   Wind: 6mph
Humidity: 100%   Direction: 200°SSW
Pressure: 29.36"   Gusts: NA
Location:  40.9417°N, 93.4995°W
Report Text: KCNC 231915Z AUTO 20005KT 2 1/2SM BR BKN003 12/12 A2936 RMK AO2
Loading
Personal Weather Stations






























Interactive Weather Map New forecast layout! Learn more

10-Day Weather Forecast

Advertisements
Track Severe Weather on mobile